createdAt,value
2024-01-24T00:00:08.313Z,5.76
2024-01-24T00:01:08.302Z,5.69
2024-01-24T00:02:08.161Z,5.73
2024-01-24T00:03:08.251Z,5.73
2024-01-24T00:04:08.218Z,5.76
2024-01-24T00:05:08.141Z,5.76
2024-01-24T00:06:08.222Z,5.79
2024-01-24T00:07:08.112Z,5.83
2024-01-24T00:08:08.089Z,5.79
2024-01-24T00:09:08.079Z,5.80
2024-01-24T00:10:08.050Z,5.83
2024-01-24T00:11:08.042Z,5.84
2024-01-24T00:12:08.051Z,5.86
2024-01-24T00:13:08.054Z,5.90
2024-01-24T00:14:07.998Z,5.91
2024-01-24T00:15:08.000Z,5.98
2024-01-24T00:16:07.977Z,5.97
2024-01-24T00:17:07.952Z,5.98
2024-01-24T00:18:08.013Z,6.01
2024-01-24T00:19:07.984Z,5.98
2024-01-24T00:20:07.916Z,5.91
2024-01-24T00:21:07.902Z,5.89
2024-01-24T00:22:07.908Z,5.97
2024-01-24T00:23:07.903Z,5.91
2024-01-24T00:24:07.876Z,5.93
2024-01-24T00:25:07.858Z,5.93
2024-01-24T00:26:07.852Z,5.91
2024-01-24T00:27:07.831Z,5.90
2024-01-24T00:28:07.810Z,5.91
2024-01-24T00:29:07.813Z,5.93
2024-01-24T00:30:07.792Z,5.97
2024-01-24T00:31:07.780Z,5.94
2024-01-24T00:32:07.774Z,5.94
2024-01-24T00:33:07.750Z,5.98
2024-01-24T00:34:07.901Z,5.98
2024-01-24T00:35:07.740Z,5.99
2024-01-24T00:36:07.712Z,5.94
2024-01-24T00:37:07.707Z,5.97
2024-01-24T00:38:07.690Z,5.97
2024-01-24T00:39:07.706Z,5.93
2024-01-24T00:40:07.674Z,5.90
2024-01-24T00:41:07.651Z,5.91
2024-01-24T00:42:07.632Z,5.89
2024-01-24T00:43:07.635Z,5.91
2024-01-24T00:44:07.618Z,5.90
2024-01-24T00:45:07.603Z,5.83
2024-01-24T00:46:07.585Z,5.89
2024-01-24T00:47:07.578Z,5.87
2024-01-24T00:48:07.603Z,5.90
2024-01-24T00:49:07.639Z,5.89
2024-01-24T00:50:07.539Z,5.93
2024-01-24T00:51:07.528Z,5.97
2024-01-24T00:52:07.510Z,5.99
2024-01-24T00:53:07.497Z,6.04
2024-01-24T00:54:07.486Z,6.04
2024-01-24T00:55:07.535Z,6.05
2024-01-24T00:56:07.457Z,6.11
2024-01-24T00:57:07.449Z,6.07
2024-01-24T00:58:07.433Z,6.12
2024-01-24T00:59:07.443Z,6.11
2024-01-24T01:00:07.450Z,6.14
2024-01-24T01:01:07.566Z,6.27
2024-01-24T01:02:07.380Z,6.28
2024-01-24T01:03:07.407Z,6.26
2024-01-24T01:04:07.504Z,6.30
2024-01-24T01:05:07.352Z,6.35
2024-01-24T01:06:07.363Z,6.35
2024-01-24T01:07:07.315Z,6.39
2024-01-24T01:08:07.300Z,6.44
2024-01-24T01:09:07.287Z,6.41
2024-01-24T01:10:07.279Z,6.41
2024-01-24T01:11:07.295Z,6.44
2024-01-24T01:12:07.239Z,6.42
2024-01-24T01:13:07.238Z,6.46
2024-01-24T01:14:07.221Z,6.44
2024-01-24T01:15:07.220Z,6.41
2024-01-24T01:16:07.208Z,6.36
2024-01-24T01:17:07.189Z,6.42
2024-01-24T01:18:07.227Z,6.46
2024-01-24T01:19:07.268Z,6.39
2024-01-24T01:20:07.170Z,6.44
2024-01-24T01:21:07.144Z,6.44
2024-01-24T01:22:07.187Z,6.39
2024-01-24T01:23:07.105Z,6.36
2024-01-24T01:24:07.099Z,6.38
2024-01-24T01:25:07.097Z,6.38
2024-01-24T01:26:07.069Z,6.35
2024-01-24T01:27:07.086Z,6.41
2024-01-24T01:28:07.048Z,6.36
2024-01-24T01:29:07.034Z,6.36
2024-01-24T01:30:07.018Z,6.36
2024-01-24T01:31:07.003Z,6.33
2024-01-24T01:32:06.990Z,6.35
2024-01-24T01:33:07.194Z,6.36
2024-01-24T01:34:07.088Z,6.28
2024-01-24T01:35:06.944Z,6.33
2024-01-24T01:36:17.260Z,6.33
2024-01-24T01:37:07.991Z,6.41
2024-01-24T01:38:06.920Z,6.42
2024-01-24T01:39:06.899Z,6.42
2024-01-24T01:40:06.881Z,6.44
2024-01-24T01:41:06.868Z,6.41
2024-01-24T01:42:06.862Z,6.44
2024-01-24T01:43:06.864Z,6.49
2024-01-24T01:44:06.838Z,6.51
2024-01-24T01:45:06.817Z,6.56
2024-01-24T01:46:06.813Z,6.59
2024-01-24T01:47:06.792Z,6.57
2024-01-24T01:48:06.891Z,6.60
2024-01-24T01:49:06.912Z,6.66
2024-01-24T01:50:06.760Z,6.75
2024-01-24T01:51:06.760Z,6.72
2024-01-24T01:52:06.770Z,6.72
2024-01-24T01:53:06.722Z,6.77
2024-01-24T01:54:06.702Z,6.79
2024-01-24T01:55:06.690Z,6.75
2024-01-24T01:56:06.681Z,6.77
2024-01-24T01:57:06.677Z,6.84
2024-01-24T01:58:06.649Z,6.78
2024-01-24T01:59:06.771Z,6.81
2024-01-24T02:00:06.667Z,6.81
2024-01-24T02:01:06.825Z,6.79
2024-01-24T02:02:06.597Z,6.82
2024-01-24T02:03:06.652Z,6.87
2024-01-24T02:04:06.588Z,6.97
2024-01-24T02:05:06.577Z,6.96
2024-01-24T02:06:06.674Z,7.02
2024-01-24T02:07:06.680Z,7.03
2024-01-24T02:08:06.549Z,7.06
2024-01-24T02:09:06.505Z,7.10
2024-01-24T02:10:06.510Z,7.11
2024-01-24T02:11:06.482Z,7.07
2024-01-24T02:12:06.471Z,7.07
2024-01-24T02:13:06.451Z,7.06
2024-01-24T02:14:06.440Z,7.05
2024-01-24T02:15:06.500Z,7.11
2024-01-24T02:16:06.433Z,7.18
2024-01-24T02:17:06.409Z,7.24
2024-01-24T02:18:06.473Z,7.24
2024-01-24T02:19:06.564Z,7.32
2024-01-24T02:20:06.411Z,7.40
2024-01-24T02:21:06.355Z,7.43
2024-01-24T02:22:06.354Z,7.48
2024-01-24T02:23:06.345Z,7.60
2024-01-24T02:24:06.316Z,7.67
2024-01-24T02:25:06.312Z,7.73
2024-01-24T02:26:06.291Z,7.77
2024-01-24T02:27:06.277Z,7.83
2024-01-24T02:28:06.324Z,7.93
2024-01-24T02:29:06.250Z,8.00
2024-01-24T02:30:06.261Z,8.18
2024-01-24T02:31:06.260Z,8.23
2024-01-24T02:32:06.207Z,8.20
2024-01-24T02:33:06.385Z,8.26
2024-01-24T02:34:06.389Z,8.26
2024-01-24T02:35:06.173Z,8.26
2024-01-24T02:36:06.167Z,8.26
2024-01-24T02:37:06.154Z,8.24
2024-01-24T02:38:06.138Z,8.23
2024-01-24T02:39:06.116Z,8.26
2024-01-24T02:40:06.120Z,8.26
2024-01-24T02:41:06.096Z,8.34
2024-01-24T02:42:06.098Z,8.36
2024-01-24T02:43:06.085Z,8.38
2024-01-24T02:44:06.051Z,8.37
2024-01-24T02:45:06.054Z,8.42
2024-01-24T02:46:06.044Z,8.46
2024-01-24T02:47:06.043Z,8.53
2024-01-24T02:48:06.166Z,8.49
2024-01-24T02:49:06.028Z,8.53
2024-01-24T02:50:05.981Z,8.51
2024-01-24T02:51:05.959Z,8.49
2024-01-24T02:52:05.959Z,8.49
2024-01-24T02:53:05.942Z,8.55
2024-01-24T02:54:05.958Z,8.55
2024-01-24T02:55:05.908Z,8.53
2024-01-24T02:56:05.909Z,8.60
2024-01-24T02:57:05.989Z,8.70
2024-01-24T02:58:05.876Z,8.70
2024-01-24T02:59:05.860Z,8.71
2024-01-24T03:00:05.846Z,8.73
2024-01-24T03:01:05.966Z,8.74
2024-01-24T03:02:05.831Z,8.87
2024-01-24T03:03:05.904Z,8.91
2024-01-24T03:04:05.862Z,8.89
2024-01-24T03:05:05.785Z,8.97
2024-01-24T03:06:05.797Z,8.91
2024-01-24T03:07:05.907Z,8.91
2024-01-24T03:08:05.754Z,8.91
2024-01-24T03:09:05.734Z,8.92
2024-01-24T03:10:05.750Z,8.97
2024-01-24T03:11:05.706Z,9.04
2024-01-24T03:12:05.699Z,9.06
2024-01-24T03:13:05.738Z,9.02
2024-01-24T03:14:05.668Z,9.03
2024-01-24T03:15:05.653Z,9.06
2024-01-24T03:16:05.634Z,9.14
2024-01-24T03:17:05.633Z,9.21
2024-01-24T03:18:05.791Z,9.19
2024-01-24T03:19:05.685Z,9.16
2024-01-24T03:20:05.593Z,9.10
2024-01-24T03:21:05.578Z,9.11
2024-01-24T03:22:05.569Z,9.11
2024-01-24T03:23:05.939Z,9.14
2024-01-24T03:24:05.537Z,9.19
2024-01-24T03:25:05.655Z,9.22
2024-01-24T03:26:05.542Z,9.23
2024-01-24T03:27:05.502Z,9.21
2024-01-24T03:28:05.488Z,9.19
2024-01-24T03:29:05.478Z,9.18
2024-01-24T03:30:05.470Z,9.19
2024-01-24T03:31:05.470Z,9.21
2024-01-24T03:32:05.439Z,9.25
2024-01-24T03:33:05.517Z,9.23
2024-01-24T03:34:05.773Z,9.26
2024-01-24T03:35:05.476Z,9.23
2024-01-24T03:36:05.393Z,9.25
2024-01-24T03:37:05.393Z,9.23
2024-01-24T03:38:05.359Z,9.21
2024-01-24T03:39:05.368Z,9.16
2024-01-24T03:40:05.333Z,9.13
2024-01-24T03:41:05.349Z,9.14
2024-01-24T03:42:05.310Z,9.22
2024-01-24T03:43:05.301Z,9.23
2024-01-24T03:44:05.368Z,9.21
2024-01-24T03:45:05.273Z,9.19
2024-01-24T03:46:05.267Z,9.16
2024-01-24T03:47:05.250Z,9.19
2024-01-24T03:48:05.268Z,9.23
2024-01-24T03:49:05.345Z,9.18
2024-01-24T03:50:05.212Z,9.18
2024-01-24T03:51:05.248Z,9.18
2024-01-24T03:52:05.223Z,9.14
2024-01-24T03:53:05.175Z,9.14
2024-01-24T03:54:05.190Z,9.21
2024-01-24T03:55:05.157Z,9.22
2024-01-24T03:56:05.128Z,9.21
2024-01-24T03:57:05.115Z,9.18
2024-01-24T03:58:05.119Z,9.18
2024-01-24T03:59:05.089Z,9.29
2024-01-24T04:00:05.090Z,9.28
2024-01-24T04:01:05.225Z,9.28
2024-01-24T04:02:05.078Z,9.29
2024-01-24T04:03:05.042Z,9.26
2024-01-24T04:04:05.250Z,9.32
2024-01-24T04:05:05.013Z,9.32
2024-01-24T04:06:05.060Z,9.34
2024-01-24T04:07:05.129Z,9.34
2024-01-24T04:08:04.980Z,9.34
2024-01-24T04:09:04.990Z,9.39
2024-01-24T04:10:04.956Z,9.37
2024-01-24T04:11:04.949Z,9.34
2024-01-24T04:12:04.945Z,9.39
2024-01-24T04:13:04.912Z,9.36
2024-01-24T04:14:04.907Z,9.36
2024-01-24T04:15:04.888Z,9.34
2024-01-24T04:16:04.943Z,9.37
2024-01-24T04:17:04.867Z,9.36
2024-01-24T04:18:04.912Z,9.36
2024-01-24T04:19:04.882Z,9.39
2024-01-24T04:20:04.828Z,9.40
2024-01-24T04:21:04.822Z,9.40
2024-01-24T04:22:04.797Z,9.44
2024-01-24T04:23:04.815Z,9.46
2024-01-24T04:24:04.779Z,9.51
2024-01-24T04:25:04.778Z,9.48
2024-01-24T04:26:04.747Z,9.48
2024-01-24T04:27:04.755Z,9.44
2024-01-24T04:28:04.790Z,9.46
2024-01-24T04:29:04.726Z,9.48
2024-01-24T04:30:04.702Z,9.55
2024-01-24T04:31:04.744Z,9.59
2024-01-24T04:32:04.715Z,9.59
2024-01-24T04:33:04.833Z,9.61
2024-01-24T04:34:04.958Z,9.61
2024-01-24T04:35:04.670Z,9.59
2024-01-24T04:36:04.657Z,9.62
2024-01-24T04:37:04.611Z,9.62
2024-01-24T04:38:04.632Z,9.62
2024-01-24T04:39:04.645Z,9.55
2024-01-24T04:40:04.636Z,9.55
2024-01-24T04:41:04.561Z,9.59
2024-01-24T04:42:11.805Z,9.58
2024-01-24T04:43:04.585Z,9.64
2024-01-24T04:44:04.535Z,9.59
2024-01-24T04:45:04.511Z,9.59
2024-01-24T04:46:04.581Z,9.64
2024-01-24T04:47:04.494Z,9.61
2024-01-24T04:48:04.525Z,9.64
2024-01-24T04:49:04.565Z,9.59
2024-01-24T04:50:04.544Z,9.59
2024-01-24T04:51:04.436Z,9.59
2024-01-24T04:52:04.434Z,9.59
2024-01-24T04:53:04.436Z,9.55
2024-01-24T04:54:04.412Z,9.55
2024-01-24T04:55:04.413Z,9.54
2024-01-24T04:56:04.373Z,9.51
2024-01-24T04:57:04.386Z,9.58
2024-01-24T04:58:04.419Z,9.58
2024-01-24T04:59:04.348Z,9.55
2024-01-24T05:00:04.333Z,9.54
2024-01-24T05:01:04.425Z,9.47
2024-01-24T05:02:04.302Z,9.51
2024-01-24T05:03:04.307Z,9.46
2024-01-24T05:04:04.519Z,9.46
2024-01-24T05:05:04.268Z,9.40
2024-01-24T05:06:10.170Z,9.41
2024-01-24T05:07:05.331Z,9.40
2024-01-24T05:08:04.231Z,9.40
2024-01-24T05:09:04.229Z,9.41
2024-01-24T05:10:04.200Z,9.40
2024-01-24T05:11:04.228Z,9.36
2024-01-24T05:12:04.192Z,9.40
2024-01-24T05:13:04.184Z,9.40
2024-01-24T05:14:04.140Z,9.37
2024-01-24T05:15:04.148Z,9.34
2024-01-24T05:16:04.127Z,9.36
2024-01-24T05:17:04.120Z,9.36
2024-01-24T05:18:04.169Z,9.32
2024-01-24T05:19:04.180Z,9.31
2024-01-24T05:20:04.071Z,9.34
2024-01-24T05:21:04.057Z,9.36
2024-01-24T05:22:04.076Z,9.37
2024-01-24T05:23:04.022Z,9.37
2024-01-24T05:24:04.025Z,9.32
2024-01-24T05:25:04.039Z,9.31
2024-01-24T05:26:03.993Z,9.29
2024-01-24T05:27:04.014Z,9.29
2024-01-24T05:28:03.964Z,9.29
2024-01-24T05:29:03.945Z,9.26
2024-01-24T05:30:12.398Z,9.32
2024-01-24T05:31:05.017Z,9.34
2024-01-24T05:32:03.945Z,9.37
2024-01-24T05:33:03.956Z,9.37
2024-01-24T05:34:03.990Z,9.36
2024-01-24T05:35:03.910Z,9.39
2024-01-24T05:36:03.900Z,9.40
2024-01-24T05:37:03.925Z,9.40
2024-01-24T05:38:03.821Z,9.34
2024-01-24T05:39:03.804Z,9.39
2024-01-24T05:40:03.939Z,9.39
2024-01-24T05:41:03.779Z,9.40
2024-01-24T05:42:03.811Z,9.41
2024-01-24T05:43:03.971Z,9.43
2024-01-24T05:44:03.743Z,9.43
2024-01-24T05:45:03.744Z,9.43
2024-01-24T05:46:03.779Z,9.41
2024-01-24T05:47:03.700Z,9.37
2024-01-24T05:48:03.788Z,9.40
2024-01-24T05:49:03.827Z,9.40
2024-01-24T05:50:03.679Z,9.40
2024-01-24T05:51:03.648Z,9.44
2024-01-24T05:52:03.693Z,9.39
2024-01-24T05:53:03.629Z,9.37
2024-01-24T05:54:03.604Z,9.39
2024-01-24T05:55:03.638Z,9.36
2024-01-24T05:56:03.584Z,9.36
2024-01-24T05:57:03.600Z,9.34
2024-01-24T05:58:03.653Z,9.40
2024-01-24T05:59:03.574Z,9.39
2024-01-24T06:00:03.643Z,9.44
2024-01-24T06:01:03.594Z,9.39
2024-01-24T06:02:03.521Z,9.40
2024-01-24T06:03:03.499Z,9.39
2024-01-24T06:04:03.559Z,9.40
2024-01-24T06:05:03.534Z,9.41
2024-01-24T06:06:03.528Z,9.48
2024-01-24T06:07:03.624Z,9.54
2024-01-24T06:08:03.434Z,9.55
2024-01-24T06:09:03.425Z,9.56
2024-01-24T06:10:03.464Z,9.61
2024-01-24T06:11:03.390Z,9.62
2024-01-24T06:12:03.371Z,9.56
2024-01-24T06:13:03.364Z,9.65
2024-01-24T06:14:03.338Z,9.64
2024-01-24T06:15:03.362Z,9.65
2024-01-24T06:16:03.398Z,9.61
2024-01-24T06:17:03.293Z,9.62
2024-01-24T06:18:03.301Z,9.64
2024-01-24T06:19:03.340Z,9.62
2024-01-24T06:20:03.276Z,9.58
2024-01-24T06:21:03.251Z,9.61
2024-01-24T06:22:03.238Z,9.62
2024-01-24T06:23:03.228Z,9.59
2024-01-24T06:24:03.204Z,9.61
2024-01-24T06:25:03.337Z,9.61
2024-01-24T06:26:03.181Z,9.62
2024-01-24T06:27:03.168Z,9.59
2024-01-24T06:28:03.172Z,9.58
2024-01-24T06:29:03.148Z,9.56
2024-01-24T06:30:18.314Z,9.59
2024-01-24T06:31:04.249Z,9.62
2024-01-24T06:32:03.104Z,9.66
2024-01-24T06:33:03.112Z,9.64
2024-01-24T06:34:03.126Z,9.66
2024-01-24T06:35:03.065Z,9.66
2024-01-24T06:36:03.051Z,9.62
2024-01-24T06:37:03.028Z,9.64
2024-01-24T06:38:03.033Z,9.62
2024-01-24T06:39:03.003Z,9.58
2024-01-24T06:40:03.018Z,9.54
2024-01-24T06:41:03.013Z,9.54
2024-01-24T06:42:02.980Z,9.61
2024-01-24T06:43:02.990Z,9.62
2024-01-24T06:44:02.945Z,9.58
2024-01-24T06:45:02.934Z,9.61
2024-01-24T06:46:02.982Z,9.59
2024-01-24T06:47:02.930Z,9.56
2024-01-24T06:48:02.955Z,9.51
2024-01-24T06:49:03.013Z,9.56
2024-01-24T06:50:02.854Z,9.54
2024-01-24T06:51:02.845Z,9.54
2024-01-24T06:52:02.831Z,9.50
2024-01-24T06:53:02.827Z,9.54
2024-01-24T06:54:02.802Z,9.58
2024-01-24T06:55:02.833Z,9.59
2024-01-24T06:56:02.778Z,9.61
2024-01-24T06:57:02.785Z,9.56
2024-01-24T06:58:03.779Z,9.58
2024-01-24T06:59:02.742Z,9.55
2024-01-24T07:00:02.739Z,9.55
2024-01-24T07:01:02.783Z,9.55
2024-01-24T07:02:02.745Z,9.55
2024-01-24T07:03:02.712Z,9.48
2024-01-24T07:04:02.831Z,9.50
2024-01-24T07:05:02.742Z,9.51
2024-01-24T07:06:02.733Z,9.54
2024-01-24T07:07:02.740Z,9.50
2024-01-24T07:08:02.618Z,9.50
2024-01-24T07:09:02.622Z,9.54
2024-01-24T07:10:02.677Z,9.50
2024-01-24T07:11:02.591Z,9.48
2024-01-24T07:12:02.569Z,9.50
2024-01-24T07:13:02.700Z,9.46
2024-01-24T07:14:02.562Z,9.41
2024-01-24T07:15:02.572Z,9.43
2024-01-24T07:16:02.650Z,9.40
2024-01-24T07:17:02.510Z,9.37
2024-01-24T07:18:02.675Z,9.40
2024-01-24T07:19:02.601Z,9.40
2024-01-24T07:20:02.520Z,9.34
2024-01-24T07:21:02.467Z,9.37
2024-01-24T07:22:04.850Z,9.31
2024-01-24T07:23:02.428Z,9.29
2024-01-24T07:24:02.423Z,9.32
2024-01-24T07:25:02.419Z,9.36
2024-01-24T07:26:02.392Z,9.34
2024-01-24T07:27:02.391Z,9.37
2024-01-24T07:28:02.452Z,9.32
2024-01-24T07:29:02.365Z,9.31
2024-01-24T07:30:02.347Z,9.34
2024-01-24T07:31:02.375Z,9.28
2024-01-24T07:32:02.327Z,9.31
2024-01-24T07:33:02.315Z,9.28
2024-01-24T07:34:02.393Z,9.26
2024-01-24T07:35:02.369Z,9.28
2024-01-24T07:36:02.260Z,9.25
2024-01-24T07:37:02.411Z,9.23
2024-01-24T07:38:02.233Z,9.22
2024-01-24T07:39:02.227Z,9.23
2024-01-24T07:40:02.397Z,9.25
2024-01-24T07:41:02.195Z,9.25
2024-01-24T07:42:02.209Z,9.23
2024-01-24T07:43:02.217Z,9.28
2024-01-24T07:44:02.167Z,9.28
2024-01-24T07:45:02.152Z,9.23
2024-01-24T07:46:02.209Z,9.31
2024-01-24T07:47:02.123Z,9.26
2024-01-24T07:48:02.156Z,9.32
2024-01-24T07:49:02.134Z,9.32
2024-01-24T07:50:02.170Z,9.34
2024-01-24T07:51:02.102Z,9.31
2024-01-24T07:52:02.223Z,9.34
2024-01-24T07:53:02.053Z,9.37
2024-01-24T07:54:02.027Z,9.39
2024-01-24T07:55:02.124Z,9.40
2024-01-24T07:56:10.705Z,9.43
2024-01-24T07:57:03.026Z,9.47
2024-01-24T07:58:02.222Z,9.50
2024-01-24T07:59:01.987Z,9.51
2024-01-24T08:00:02.000Z,9.55
2024-01-24T08:01:01.989Z,9.59
2024-01-24T08:02:02.028Z,9.59
2024-01-24T08:03:01.922Z,9.59
2024-01-24T08:04:02.093Z,9.61
2024-01-24T08:05:02.096Z,9.61
2024-01-24T08:06:01.939Z,9.64
2024-01-24T08:07:01.975Z,9.68
2024-01-24T08:08:01.843Z,9.68
2024-01-24T08:09:01.844Z,9.68
2024-01-24T08:10:01.881Z,9.66
2024-01-24T08:11:01.805Z,9.72
2024-01-24T08:12:01.787Z,9.74
2024-01-24T08:13:01.828Z,9.74
2024-01-24T08:14:01.772Z,9.74
2024-01-24T08:15:01.765Z,9.73
2024-01-24T08:16:01.826Z,9.74
2024-01-24T08:17:01.749Z,9.72
2024-01-24T08:18:01.812Z,9.69
2024-01-24T08:19:01.834Z,9.64
2024-01-24T08:20:01.783Z,9.69
2024-01-24T08:21:01.704Z,9.68
2024-01-24T08:22:01.758Z,9.68
2024-01-24T08:23:01.697Z,9.74
2024-01-24T08:24:01.636Z,9.76
2024-01-24T08:25:01.680Z,9.74
2024-01-24T08:26:01.616Z,9.74
2024-01-24T08:27:01.622Z,9.73
2024-01-24T08:28:01.701Z,9.77
2024-01-24T08:29:01.572Z,9.74
2024-01-24T08:30:01.560Z,9.79
2024-01-24T08:31:01.600Z,9.76
2024-01-24T08:32:01.529Z,9.77
2024-01-24T08:33:01.693Z,9.79
2024-01-24T08:34:01.685Z,9.80
2024-01-24T08:35:01.642Z,9.82
2024-01-24T08:36:01.490Z,9.84
2024-01-24T08:37:01.506Z,9.84
2024-01-24T08:38:01.468Z,9.82
2024-01-24T08:39:01.466Z,9.84
2024-01-24T08:40:01.487Z,9.86
2024-01-24T08:41:01.417Z,9.89
2024-01-24T08:42:01.508Z,9.89
2024-01-24T08:43:01.428Z,9.87
2024-01-24T08:44:01.392Z,9.91
2024-01-24T08:45:01.376Z,9.92
2024-01-24T08:46:01.455Z,9.92
2024-01-24T08:47:01.343Z,9.94
2024-01-24T08:48:01.370Z,9.94
2024-01-24T08:49:01.426Z,9.94
2024-01-24T08:50:01.418Z,9.99
2024-01-24T08:51:01.341Z,10.01
2024-01-24T08:52:01.394Z,10.04
2024-01-24T08:53:01.269Z,10.02
2024-01-24T08:54:01.291Z,10.05
2024-01-24T08:55:01.704Z,10.05
2024-01-24T08:56:01.216Z,10.05
2024-01-24T08:57:01.231Z,10.09
2024-01-24T08:58:01.352Z,10.02
2024-01-24T08:59:01.198Z,10.05
2024-01-24T09:00:01.198Z,10.09
2024-01-24T09:01:01.171Z,10.09
2024-01-24T09:02:01.197Z,10.02
2024-01-24T09:03:01.138Z,10.02
2024-01-24T09:04:01.144Z,10.12
2024-01-24T09:05:01.232Z,10.10
2024-01-24T09:06:01.238Z,10.12
2024-01-24T09:07:01.130Z,10.13
2024-01-24T09:08:01.072Z,10.13
2024-01-24T09:09:01.108Z,10.10
2024-01-24T09:10:01.143Z,10.20
2024-01-24T09:11:01.059Z,10.20
2024-01-24T09:12:01.029Z,10.22
2024-01-24T09:13:01.140Z,10.26
2024-01-24T09:14:01.002Z,10.30
2024-01-24T09:15:00.984Z,10.31
2024-01-24T09:16:00.986Z,10.34
2024-01-24T09:17:00.953Z,10.37
2024-01-24T09:18:01.061Z,10.34
2024-01-24T09:19:00.990Z,10.37
2024-01-24T09:20:01.057Z,10.38
2024-01-24T09:21:00.900Z,10.41
2024-01-24T09:22:00.985Z,10.42
2024-01-24T09:23:00.881Z,10.41
2024-01-24T09:24:00.871Z,10.41
2024-01-24T09:25:03.540Z,10.42
2024-01-24T09:26:00.841Z,10.46
2024-01-24T09:27:00.848Z,10.46
2024-01-24T09:28:00.895Z,10.46
2024-01-24T09:29:00.813Z,10.49
2024-01-24T09:30:00.784Z,10.53
2024-01-24T09:31:00.829Z,10.54
2024-01-24T09:32:00.770Z,10.53
2024-01-24T09:33:00.921Z,10.49
2024-01-24T09:34:00.990Z,10.56
2024-01-24T09:35:00.931Z,10.60
2024-01-24T09:36:00.774Z,10.64
2024-01-24T09:37:00.743Z,10.63
2024-01-24T09:38:00.710Z,10.61
2024-01-24T09:39:00.680Z,10.60
2024-01-24T09:40:00.828Z,10.63
2024-01-24T09:41:00.718Z,10.61
2024-01-24T09:42:00.658Z,10.63
2024-01-24T09:43:00.697Z,10.61
2024-01-24T09:44:00.646Z,10.63
2024-01-24T09:45:00.597Z,10.63
2024-01-24T09:46:00.643Z,10.63
2024-01-24T09:47:00.573Z,10.60
2024-01-24T09:48:00.585Z,10.61
2024-01-24T09:49:00.712Z,10.60
2024-01-24T09:50:00.628Z,10.60
2024-01-24T09:51:00.529Z,10.57
2024-01-24T09:52:00.624Z,10.61
2024-01-24T09:53:00.506Z,10.63
2024-01-24T09:54:00.488Z,10.64
2024-01-24T09:55:00.688Z,10.67
2024-01-24T09:56:00.485Z,10.69
2024-01-24T09:57:00.489Z,10.71
2024-01-24T09:58:00.546Z,10.71
2024-01-24T09:59:00.454Z,10.69
2024-01-24T10:00:00.401Z,10.74
2024-01-24T10:01:00.477Z,10.75
2024-01-24T10:02:00.440Z,10.76
2024-01-24T10:03:00.431Z,10.76
2024-01-24T10:04:00.492Z,10.82
2024-01-24T10:05:00.412Z,10.86
2024-01-24T10:06:00.421Z,10.87
2024-01-24T10:07:00.395Z,10.87
2024-01-24T10:08:00.296Z,10.89
2024-01-24T10:09:00.303Z,10.96
2024-01-24T10:10:00.689Z,10.99
2024-01-24T10:11:00.262Z,11.02
2024-01-24T10:12:00.252Z,11.02
2024-01-24T10:13:00.435Z,11.05
2024-01-24T10:14:00.252Z,11.04
2024-01-24T10:15:00.266Z,11.05
2024-01-24T10:16:00.358Z,11.05
2024-01-24T10:17:00.187Z,11.02
2024-01-24T10:18:00.306Z,11.04
2024-01-24T10:19:00.294Z,11.08
2024-01-24T10:20:00.423Z,11.15
2024-01-24T10:21:00.158Z,11.22
2024-01-24T10:22:00.231Z,11.27
2024-01-24T10:23:00.131Z,11.29
2024-01-24T10:24:00.094Z,11.27
2024-01-24T10:25:00.202Z,11.35
2024-01-24T10:26:00.124Z,11.37
2024-01-24T10:27:00.069Z,11.41
2024-01-24T10:28:00.074Z,11.36
2024-01-24T10:29:00.051Z,11.43
2024-01-24T10:30:00.044Z,11.44
2024-01-24T10:31:00.197Z,11.45
2024-01-24T10:32:00.011Z,11.44
2024-01-24T10:33:00.008Z,11.43
2024-01-24T10:34:00.096Z,11.43
2024-01-24T10:35:00.205Z,11.44
2024-01-24T10:36:05.108Z,11.43
2024-01-24T10:37:01.010Z,11.45
2024-01-24T10:37:59.929Z,11.47
2024-01-24T10:38:59.959Z,11.48
2024-01-24T10:39:59.946Z,11.48
2024-01-24T10:40:59.884Z,11.48
2024-01-24T10:41:59.867Z,11.48
2024-01-24T10:42:59.940Z,11.47
2024-01-24T10:43:59.855Z,11.45
2024-01-24T10:44:59.853Z,11.47
2024-01-24T10:45:59.902Z,11.48
2024-01-24T10:46:59.832Z,11.50
2024-01-24T10:47:59.882Z,11.50
2024-01-24T10:48:59.850Z,11.51
2024-01-24T10:49:59.889Z,11.50
2024-01-24T10:50:59.765Z,11.48
2024-01-24T10:51:59.978Z,11.48
2024-01-24T10:52:59.729Z,11.48
2024-01-24T10:53:59.805Z,11.52
2024-01-24T10:54:59.739Z,11.52
2024-01-24T10:55:59.689Z,11.54
2024-01-24T10:56:59.696Z,11.54
2024-01-24T10:57:59.735Z,11.54
2024-01-24T10:58:59.665Z,11.55
2024-01-24T10:59:59.652Z,11.51
2024-01-24T11:00:59.794Z,11.54
2024-01-24T11:01:59.634Z,11.57
2024-01-24T11:02:59.632Z,11.54
2024-01-24T11:03:59.641Z,11.60
2024-01-24T11:04:59.636Z,11.62
2024-01-24T11:05:59.629Z,11.63
2024-01-24T11:06:59.701Z,11.69
2024-01-24T11:07:59.536Z,11.70
2024-01-24T11:08:59.538Z,11.72
2024-01-24T11:09:59.570Z,11.72
2024-01-24T11:10:59.495Z,11.73
2024-01-24T11:11:59.490Z,11.75
2024-01-24T11:12:59.555Z,11.73
2024-01-24T11:13:59.465Z,11.72
2024-01-24T11:14:59.450Z,11.73
2024-01-24T11:15:59.574Z,11.75
2024-01-24T11:16:59.431Z,11.80
2024-01-24T11:17:59.444Z,11.80
2024-01-24T11:18:59.485Z,11.78
2024-01-24T11:19:59.572Z,11.80
2024-01-24T11:20:59.380Z,11.78
2024-01-24T11:21:59.430Z,11.83
2024-01-24T11:22:59.343Z,11.81
2024-01-24T11:23:59.340Z,11.84
2024-01-24T11:24:59.349Z,11.84
2024-01-24T11:25:59.326Z,11.84
2024-01-24T11:26:59.390Z,11.86
2024-01-24T11:27:59.310Z,11.87
2024-01-24T11:28:59.268Z,11.84
2024-01-24T11:29:59.257Z,11.84
2024-01-24T11:30:59.263Z,11.87
2024-01-24T11:31:59.300Z,11.84
2024-01-24T11:32:59.414Z,11.86
2024-01-24T11:33:59.307Z,11.86
2024-01-24T11:34:59.285Z,11.87
2024-01-24T11:35:59.188Z,11.87
2024-01-24T11:36:59.218Z,11.90
2024-01-24T11:38:08.586Z,11.90
2024-01-24T11:39:00.176Z,11.86
2024-01-24T11:39:59.156Z,11.86
2024-01-24T11:40:59.205Z,11.84
2024-01-24T11:41:59.114Z,11.81
2024-01-24T11:42:59.302Z,11.81
2024-01-24T11:43:59.102Z,11.80
2024-01-24T11:44:59.071Z,11.75
2024-01-24T11:45:59.152Z,11.72
2024-01-24T11:46:59.133Z,11.72
2024-01-24T11:47:59.205Z,11.75
2024-01-24T11:48:59.141Z,11.73
2024-01-24T11:49:59.059Z,11.73
2024-01-24T11:50:59.049Z,11.73
2024-01-24T11:51:59.004Z,11.75
2024-01-24T11:52:58.969Z,11.75
2024-01-24T11:53:58.957Z,11.73
2024-01-24T11:54:59.048Z,11.75
2024-01-24T11:55:58.930Z,11.75
2024-01-24T11:56:58.969Z,11.73
2024-01-24T11:57:58.916Z,11.77
2024-01-24T11:58:58.884Z,11.77
2024-01-24T11:59:58.873Z,11.75
2024-01-24T12:00:58.966Z,11.72
2024-01-24T12:01:58.838Z,11.73
2024-01-24T12:02:58.838Z,11.72
2024-01-24T12:03:58.896Z,11.70
2024-01-24T12:04:58.830Z,11.72
2024-01-24T12:05:58.825Z,11.72
2024-01-24T12:06:58.910Z,11.72
2024-01-24T12:07:58.771Z,11.73
2024-01-24T12:08:58.798Z,11.70
2024-01-24T12:09:58.827Z,11.70
2024-01-24T12:10:58.744Z,11.70
2024-01-24T12:11:58.720Z,11.69
2024-01-24T12:12:58.847Z,11.72
2024-01-24T12:13:58.695Z,11.72
2024-01-24T12:14:59.506Z,11.72
2024-01-24T12:15:58.851Z,11.73
2024-01-24T12:16:58.795Z,11.75
2024-01-24T12:17:58.681Z,11.73
2024-01-24T12:18:58.773Z,11.75
2024-01-24T12:19:58.719Z,11.78
2024-01-24T12:21:02.239Z,11.78
2024-01-24T12:21:58.603Z,11.78
2024-01-24T12:22:58.607Z,11.83
2024-01-24T12:23:58.573Z,11.83
2024-01-24T12:24:58.596Z,11.83
2024-01-24T12:25:58.544Z,11.81
2024-01-24T12:27:00.183Z,11.84
2024-01-24T12:27:58.595Z,11.81
2024-01-24T12:28:58.528Z,11.86
2024-01-24T12:29:58.491Z,11.87
2024-01-24T12:30:58.550Z,11.87
2024-01-24T12:31:58.463Z,11.87
2024-01-24T12:32:58.785Z,11.88
2024-01-24T12:33:58.586Z,11.90
2024-01-24T12:34:58.629Z,11.90
2024-01-24T12:35:58.419Z,11.94
2024-01-24T12:36:58.461Z,11.91
2024-01-24T12:37:58.379Z,11.91
2024-01-24T12:38:58.908Z,11.90
2024-01-24T12:39:58.441Z,11.88
2024-01-24T12:40:58.342Z,11.94
2024-01-24T12:41:58.353Z,11.91
2024-01-24T12:42:58.359Z,11.88
2024-01-24T12:43:58.322Z,11.90
2024-01-24T12:44:58.292Z,11.90
2024-01-24T12:45:58.289Z,11.88
2024-01-24T12:46:58.272Z,11.91
2024-01-24T12:47:58.342Z,11.95
2024-01-24T12:48:58.316Z,11.97
2024-01-24T12:49:58.318Z,11.97
2024-01-24T12:50:58.258Z,11.97
2024-01-24T12:51:58.305Z,11.99
2024-01-24T12:52:58.188Z,12.00
2024-01-24T12:53:58.192Z,12.00
2024-01-24T12:54:58.225Z,12.00
2024-01-24T12:55:58.156Z,12.00
2024-01-24T12:56:58.128Z,11.99
2024-01-24T12:57:58.157Z,11.94
2024-01-24T12:58:58.122Z,11.88
2024-01-24T12:59:58.097Z,11.88
2024-01-24T13:00:58.216Z,11.83
2024-01-24T13:01:58.102Z,11.80
2024-01-24T13:02:58.084Z,11.80
2024-01-24T13:03:58.106Z,11.80
2024-01-24T13:04:58.147Z,11.80
2024-01-24T13:05:58.182Z,11.78
2024-01-24T13:06:58.175Z,11.83
2024-01-24T13:07:58.024Z,11.86
2024-01-24T13:08:57.984Z,11.86